Archival Weather

Scottsdale

Scottsdale, Arizona (KSDL)

Report from: Wednesday, December 6, 2023 11:53 AM MST
Current time: Wednesday, April 24, 2024 12:53 PM MST

Current weather – Weather history – Daily summaries
Weather forecast

Temperature25.6°C (78.1°F)
Dew point-1.7°C (28.9°F)
Winds 5 kts (2.6 m/s, 5.8 mph) Vrb
Winds variableWinds variable
Visibility10 mi. (16.1 km)
Clouds Sky clear
Altimeter30.10 in.Hg (1019 mB)
Relative humidity16 %
Density altitude1,169 ft. (356 m)
Sea-level pressure101.8 kPa (1018 mB, 30.05 in.Hg)
Remarks Automated weather observing station with precipitation discriminator
Flight conditions Visual Meteorological Conditions
Raw dataKSDL 061853Z VRB05KT 10SM CLR 26/M02 A3010 RMK AO2 SLP176 T02561017
An error has occurred. This application may no longer respond until reloaded. Reload 🗙